首页
METAR-TAF:

METAR-TAF

机场 :

伊魁特機場

伊魁特, 努那武特, 加拿大

纬度: 63-45N, 经度: 068-33W, 海拔: 34米

当前天气观测

该预报发布于42分钟前的17:00 UTC
风速5节,风向南转西南,在西转西北之间变化
温度 6°C
湿度 70%
气压 998 hPa
能見度: 48.3公里
少量云层高于2000英尺
多云层高于7200英尺
多云层高于25000英尺

METAR: CYFB 241700Z 21005KT 190V290 30SM FEW020 BKN072 BKN250 06/01 A2946 RMK SC1AC6CI1 CI TR SLP981

时间: 13:42 (17:42 UTC)

预报

该预报发布于6小时和2分钟前的11:40 UTC
预报有效从24日的 12点(UTC)到 25日的 12点(UTC)
风速5节,风向东南
能見度: 10公里
散云层高于600英尺
阴天层高于3000英尺
短暂存在
从 24日的 12点(UTC)到 24日的 16点(UTC)
能見度: 10公里
阴天层高于600英尺
小雨
从 24日的 1600点(UTC)
风速5节,风向南转南东
能見度: 10公里
阴天层高于3000英尺
短暂存在
从 24日的 16点(UTC)到 24日的 20点(UTC)
阴天层高于1200英尺
从 24日的 2000点(UTC)
风速5节,风向
能見度: 10公里
阴天层高于4000英尺
从 25日的 0600点(UTC)
风速3节,风向多变
能見度: 10公里
阴天层高于3000英尺
短暂存在
从 25日的 06点(UTC)到 25日的 12点(UTC)
阴天层高于1500英尺

TAF: CYFB 241140Z 2412/2512 14005KT P6SM SCT006 OVC030 TEMPO 2412/2416 P6SM -RA OVC006 FM241600 16005KT P6SM OVC030 TEMPO 2416/2420 OVC012 FM242000 18005KT P6SM OVC040 FM250600 VRB03KT P6SM OVC030 TEMPO 2506/2512 OVC015 RMK NXT FCST BY 241800Z

超过4000个机场的气象观测和天气预报(METAR&TAF报告)。

可查询的气象台以黄色和红色小点在地图上表示。

将鼠标移到小点上方,可查看气象台名称。

然后点击查看天气观测和预报。

如需切换地图:点击带黑十字的绿色按钮放大地图;点击带横线的绿色按钮缩小地图;或者点击绿色箭头查看邻近地区的地图。


METAR-TAF: